Time;durP1;ratioP1;P1;durP2;ratioP2;P2;SDS_P1;SDS_P2;PMS_P1;PMS_P2;Temp;Humidity;BMP_temperature;BMP_pressure;BME280_temperature;BME280_humidity;BME280_pressure;Samples;Min_cycle;Max_cycle;Signal;HPM_P1;HPM_P2
2023/07/02 00:01:51;;;;;;;;;;;22.70;55.70;;;;;;10314172;28;96247;-61
2023/07/02 00:06:53;;;;;;;;;;;22.70;55.50;;;;;;10335070;28;94392;-61
2023/07/02 00:11:55;;;;;;;;;;;22.70;55.50;;;;;;10334086;28;93573;-60
2023/07/02 00:16:57;;;;;;;;;;;22.70;55.30;;;;;;10333453;28;93451;-61
2023/07/02 00:21:59;;;;;;;;;;;22.70;55.30;;;;;;10334084;28;94807;-61
2023/07/02 00:27:01;;;;;;;;;;;22.70;55.30;;;;;;10332952;28;94096;-61
2023/07/02 00:32:03;;;;;;;;;;;22.70;55.20;;;;;;10333326;28;94814;-61
2023/07/02 00:37:05;;;;;;;;;;;22.60;55.10;;;;;;10333642;28;92562;-61
2023/07/02 00:42:08;;;;;;;;;;;22.70;55.10;;;;;;10332435;28;93464;-61
2023/07/02 00:47:10;;;;;;;;;;;22.70;55.10;;;;;;10332362;28;94660;-61
2023/07/02 00:52:12;;;;;;;;;;;22.70;55.10;;;;;;10329910;28;98467;-61
2023/07/02 00:57:14;;;;;;;;;;;22.70;55.10;;;;;;10333061;28;93603;-62
2023/07/02 01:02:15;;;;;;;;;;;22.60;55.00;;;;;;10331245;28;93507;-61
2023/07/02 01:07:17;;;;;;;;;;;22.60;54.90;;;;;;10331564;28;92782;-61
2023/07/02 01:12:21;;;;;;;;;;;22.60;54.90;;;;;;10331797;28;94719;-61
2023/07/02 01:17:23;;;;;;;;;;;22.60;54.80;;;;;;10331825;28;93606;-61
2023/07/02 01:22:26;;;;;;;;;;;22.60;54.50;;;;;;10331393;28;94870;-61
2023/07/02 01:27:29;;;;;;;;;;;22.60;54.50;;;;;;10332524;28;94122;-62
2023/07/02 01:32:31;;;;;;;;;;;22.60;54.30;;;;;;10330831;28;93542;-61
2023/07/02 01:37:37;;;;;;;;;;;22.60;54.40;;;;;;10330709;28;93491;-61
2023/07/02 01:42:39;;;;;;;;;;;22.60;54.20;;;;;;10327979;28;95801;-61
2023/07/02 01:47:41;;;;;;;;;;;22.50;54.10;;;;;;10330673;28;93702;-62
2023/07/02 01:52:42;;;;;;;;;;;22.50;53.90;;;;;;10330761;28;92705;-61
2023/07/02 01:57:44;;;;;;;;;;;22.60;53.80;;;;;;10312980;28;93500;-61
2023/07/02 02:02:46;;;;;;;;;;;22.50;53.70;;;;;;10330178;28;92581;-62
2023/07/02 02:07:47;;;;;;;;;;;22.50;53.60;;;;;;10330551;28;94674;-61
2023/07/02 02:12:49;;;;;;;;;;;22.60;53.60;;;;;;10330817;28;94247;-61
2023/07/02 02:17:51;;;;;;;;;;;22.60;53.50;;;;;;10329417;28;92874;-61
2023/07/02 02:22:53;;;;;;;;;;;22.60;53.30;;;;;;10312277;28;93390;-61
2023/07/02 02:27:54;;;;;;;;;;;22.50;53.30;;;;;;10329194;28;93577;-61
2023/07/02 02:32:56;;;;;;;;;;;22.60;53.20;;;;;;10326525;28;95994;-61
2023/07/02 02:38:01;;;;;;;;;;;22.60;53.30;;;;;;10329273;28;94280;-61
2023/07/02 02:43:02;;;;;;;;;;;22.60;53.20;;;;;;10328760;28;93793;-61
2023/07/02 02:48:04;;;;;;;;;;;22.60;53.10;;;;;;10328641;28;94443;-61
2023/07/02 02:53:06;;;;;;;;;;;22.60;53.00;;;;;;10309772;28;93583;-61
2023/07/02 02:58:07;;;;;;;;;;;22.60;53.00;;;;;;10311290;28;94592;-61
2023/07/02 03:03:09;;;;;;;;;;;22.60;52.90;;;;;;10327793;28;93667;-61
2023/07/02 03:08:11;;;;;;;;;;;22.60;52.90;;;;;;10329114;28;92927;-61
2023/07/02 03:13:13;;;;;;;;;;;22.60;52.90;;;;;;10311450;28;94569;-61
2023/07/02 03:18:14;;;;;;;;;;;22.50;52.80;;;;;;10327970;28;94760;-61
2023/07/02 03:23:16;;;;;;;;;;;22.50;52.80;;;;;;10324270;28;96084;-61
2023/07/02 03:28:18;;;;;;;;;;;22.50;52.80;;;;;;10327479;28;93539;-61
2023/07/02 03:33:20;;;;;;;;;;;22.50;52.80;;;;;;10327160;28;93793;-61
2023/07/02 03:38:21;;;;;;;;;;;22.50;52.80;;;;;;10327023;28;94054;-61
2023/07/02 03:43:24;;;;;;;;;;;22.50;52.80;;;;;;10308448;28;93941;-60
2023/07/02 04:21:06;;;;;;;;;;;22.40;52.70;;;;;;10308414;28;95086;-60
2023/07/02 04:26:07;;;;;;;;;;;22.40;52.60;;;;;;10326590;28;93710;-60
2023/07/02 04:31:29;;;;;;;;;;;22.40;52.70;;;;;;10327493;28;95197;-60
2023/07/02 04:36:31;;;;;;;;;;;22.40;52.60;;;;;;10332938;28;93443;-60
2023/07/02 04:41:32;;;;;;;;;;;22.40;52.70;;;;;;10333788;28;94569;-59
2023/07/02 04:51:49;;;;;;;;;;;22.40;52.80;;;;;;10287836;28;93195;-60
2023/07/02 04:56:51;;;;;;;;;;;22.40;52.80;;;;;;10292036;28;93791;-60
2023/07/02 05:01:52;;;;;;;;;;;22.40;52.80;;;;;;10274439;28;97270;-59
2023/07/02 05:06:54;;;;;;;;;;;22.40;52.80;;;;;;10291770;28;94497;-60
2023/07/02 05:11:56;;;;;;;;;;;22.40;52.80;;;;;;10288442;28;95995;-60
2023/07/02 05:16:57;;;;;;;;;;;22.40;52.80;;;;;;10291030;28;93702;-60
2023/07/02 05:21:59;;;;;;;;;;;22.40;52.90;;;;;;10274477;28;94543;-60
2023/07/02 05:27:01;;;;;;;;;;;22.40;52.90;;;;;;10290729;28;94772;-61
2023/07/02 05:32:02;;;;;;;;;;;22.40;52.90;;;;;;10291224;28;94482;-60
2023/07/02 05:37:05;;;;;;;;;;;22.40;53.00;;;;;;10289325;28;92953;-61
2023/07/02 05:42:07;;;;;;;;;;;22.40;52.90;;;;;;10288089;28;92847;-60
2023/07/02 05:47:08;;;;;;;;;;;22.40;53.90;;;;;;10270542;28;92814;-60
2023/07/02 05:52:10;;;;;;;;;;;22.40;52.90;;;;;;10287387;28;93163;-61
2023/07/02 05:57:12;;;;;;;;;;;22.40;52.90;;;;;;10289636;28;93554;-61
2023/07/02 06:02:14;;;;;;;;;;;22.40;52.80;;;;;;10287474;28;96141;-60
2023/07/02 06:07:15;;;;;;;;;;;22.50;52.70;;;;;;10288504;28;93944;-60
2023/07/02 06:12:17;;;;;;;;;;;22.50;52.60;;;;;;10289514;28;94510;-61
2023/07/02 06:17:21;;;;;;;;;;;22.50;52.50;;;;;;10271825;28;92898;-61
2023/07/02 06:22:23;;;;;;;;;;;22.50;52.50;;;;;;10287876;28;94459;-60
2023/07/02 06:27:25;;;;;;;;;;;22.50;52.60;;;;;;10272397;28;94825;-60
2023/07/02 06:32:27;;;;;;;;;;;22.40;52.40;;;;;;10272025;28;94730;-60
2023/07/02 06:37:28;;;;;;;;;;;22.40;52.30;;;;;;10289303;28;92953;-60
2023/07/02 06:42:30;;;;;;;;;;;22.50;52.40;;;;;;10287490;28;93553;-61
2023/07/02 06:47:32;;;;;;;;;;;22.50;52.40;;;;;;10288095;28;94183;-60
2023/07/02 06:52:34;;;;;;;;;;;22.50;52.40;;;;;;10285643;28;96915;-61
2023/07/02 06:57:41;;;;;;;;;;;22.50;52.40;;;;;;10287694;28;92902;-60
2023/07/02 07:02:42;;;;;;;;;;;22.50;52.40;;;;;;10287124;28;93519;-61
2023/07/02 07:07:44;;;;;;;;;;;22.50;52.40;;;;;;10270412;28;94455;-61
2023/07/02 07:12:46;;;;;;;;;;;22.50;52.40;;;;;;10286839;28;94082;-61
2023/07/02 07:17:48;;;;;;;;;;;22.60;52.20;;;;;;10287592;28;92539;-61
2023/07/02 07:22:50;;;;;;;;;;;22.60;52.20;;;;;;10269834;28;93133;-61
2023/07/02 07:27:52;;;;;;;;;;;22.50;52.40;;;;;;10288885;28;93749;-60
2023/07/02 07:32:54;;;;;;;;;;;22.50;52.40;;;;;;10287772;28;93965;-61
2023/07/02 07:37:56;;;;;;;;;;;22.50;52.40;;;;;;10287969;28;94541;-61
2023/07/02 07:42:57;;;;;;;;;;;22.50;52.40;;;;;;10283854;28;96916;-61
2023/07/02 07:47:59;;;;;;;;;;;22.50;52.30;;;;;;10286114;28;95109;-60
2023/07/02 07:53:01;;;;;;;;;;;22.40;52.30;;;;;;10286168;28;94912;-61
2023/07/02 07:58:03;;;;;;;;;;;22.40;52.20;;;;;;10285926;28;93667;-60
2023/07/02 08:03:05;;;;;;;;;;;22.40;52.30;;;;;;10285523;28;94510;-60
2023/07/02 08:08:08;;;;;;;;;;;22.40;52.30;;;;;;10291169;28;94533;-60
2023/07/02 08:13:10;;;;;;;;;;;22.40;52.30;;;;;;10292991;28;93719;-61
2023/07/02 08:18:13;;;;;;;;;;;22.40;52.30;;;;;;10292924;28;93899;-61
2023/07/02 08:23:14;;;;;;;;;;;22.40;52.30;;;;;;10292017;28;92854;-61
2023/07/02 08:28:16;;;;;;;;;;;22.40;52.20;;;;;;10291194;28;94861;-61
2023/07/02 08:33:18;;;;;;;;;;;22.40;52.10;;;;;;10272734;28;96131;-61
2023/07/02 08:38:20;;;;;;;;;;;22.40;52.10;;;;;;10291460;28;93858;-60
2023/07/02 08:43:21;;;;;;;;;;;22.50;52.20;;;;;;10292787;28;93723;-60
2023/07/02 08:48:24;;;;;;;;;;;22.50;52.10;;;;;;10291690;28;94745;-61
2023/07/02 08:53:29;;;;;;;;;;;22.40;51.90;;;;;;10291145;28;93396;-60
2023/07/02 08:58:31;;;;;;;;;;;22.40;51.80;;;;;;10290681;28;93423;-61
2023/07/02 09:03:33;;;;;;;;;;;22.40;51.80;;;;;;10292925;28;95409;-61
2023/07/02 09:08:35;;;;;;;;;;;22.50;51.70;;;;;;10292106;28;94283;-60
2023/07/02 09:13:46;;;;;;;;;;;22.50;51.50;;;;;;10290552;28;93870;-61
2023/07/02 09:19:09;;;;;;;;;;;22.50;51.60;;;;;;10289496;28;93072;-61
2023/07/02 09:24:11;;;;;;;;;;;22.50;51.40;;;;;;10287297;28;96082;-60
2023/07/02 09:29:13;;;;;;;;;;;22.50;51.30;;;;;;10291152;28;93828;-61
2023/07/02 09:34:15;;;;;;;;;;;22.40;51.30;;;;;;10290934;28;93592;-61
2023/07/02 09:39:26;;;;;;;;;;;22.40;51.40;;;;;;10289763;28;93642;-60
2023/07/02 09:44:32;;;;;;;;;;;22.40;51.30;;;;;;10290212;28;93471;-61
2023/07/02 09:49:35;;;;;;;;;;;22.40;51.20;;;;;;10290312;28;93511;-61
2023/07/02 09:54:37;;;;;;;;;;;22.40;51.40;;;;;;10289586;28;94528;-60
2023/07/02 09:59:40;;;;;;;;;;;22.40;51.50;;;;;;10290554;28;93107;-61
2023/07/02 10:04:41;;;;;;;;;;;22.40;51.40;;;;;;10288798;28;93564;-60
2023/07/02 10:09:44;;;;;;;;;;;22.40;51.20;;;;;;10289077;28;94205;-61
2023/07/02 10:14:46;;;;;;;;;;;22.40;51.40;;;;;;10287361;28;96997;-61
2023/07/02 10:19:52;;;;;;;;;;;22.40;51.30;;;;;;10288350;28;94168;-61
2023/07/02 10:24:56;;;;;;;;;;;22.50;51.30;;;;;;10288153;28;94485;-60
2023/07/02 10:29:58;;;;;;;;;;;22.50;51.40;;;;;;10287760;28;94766;-61
2023/07/02 10:35:13;;;;;;;;;;;22.50;51.10;;;;;;10289645;28;93225;-61
2023/07/02 10:40:14;;;;;;;;;;;22.50;50.90;;;;;;10288641;28;93554;-61
2023/07/02 10:45:16;;;;;;;;;;;22.50;51.10;;;;;;10287087;28;94482;-61
2023/07/02 10:50:19;;;;;;;;;;;22.50;51.00;;;;;;10288678;28;93906;-60
2023/07/02 10:55:22;;;;;;;;;;;22.50;50.90;;;;;;10287780;28;93480;-61
2023/07/02 11:00:24;;;;;;;;;;;22.50;50.90;;;;;;10287975;28;93711;-59
2023/07/02 11:05:26;;;;;;;;;;;22.50;50.70;;;;;;10284852;28;96040;-59
2023/07/02 11:10:30;;;;;;;;;;;22.60;50.70;;;;;;10286214;28;93909;-59
2023/07/02 11:15:36;;;;;;;;;;;22.60;50.60;;;;;;10288217;28;94497;-60
2023/07/02 11:20:38;;;;;;;;;;;22.60;50.80;;;;;;10287678;28;94853;-61
2023/07/02 11:25:39;;;;;;;;;;;22.60;50.70;;;;;;10287171;28;94503;-60
2023/07/02 11:30:47;;;;;;;;;;;22.60;50.70;;;;;;10286735;28;94752;-61
2023/07/02 11:35:49;;;;;;;;;;;22.60;50.30;;;;;;10269438;28;93436;-60
2023/07/02 11:40:51;;;;;;;;;;;22.60;50.50;;;;;;10285207;28;91831;-60
2023/07/02 11:45:53;;;;;;;;;;;22.60;50.00;;;;;;10287109;28;93715;-60
2023/07/02 11:50:55;;;;;;;;;;;22.60;49.90;;;;;;10268421;28;93804;-60
2023/07/02 11:55:56;;;;;;;;;;;22.60;50.00;;;;;;10284430;28;95855;-61
2023/07/02 12:00:58;;;;;;;;;;;22.60;49.80;;;;;;10286742;28;93845;-60
2023/07/02 12:06:00;;;;;;;;;;;22.60;49.90;;;;;;10286561;28;94681;-60
2023/07/02 12:11:02;;;;;;;;;;;22.70;50.10;;;;;;10286228;28;93706;-60
2023/07/02 12:16:03;;;;;;;;;;;22.70;49.70;;;;;;10285252;28;93585;-60
2023/07/02 12:21:05;;;;;;;;;;;22.70;49.90;;;;;;10285751;28;95015;-61
2023/07/02 12:26:07;;;;;;;;;;;22.70;49.80;;;;;;10286137;28;94625;-61
2023/07/02 12:31:12;;;;;;;;;;;22.70;49.30;;;;;;10287526;28;92790;-60
2023/07/02 12:36:14;;;;;;;;;;;22.70;49.50;;;;;;10285747;28;93464;-60
2023/07/02 12:41:16;;;;;;;;;;;22.70;49.10;;;;;;10285090;28;94574;-60
2023/07/02 12:46:17;;;;;;;;;;;22.70;48.70;;;;;;10282225;28;96377;-60
2023/07/02 12:51:19;;;;;;;;;;;22.70;48.70;;;;;;10285319;28;93994;-60
2023/07/02 12:56:21;;;;;;;;;;;22.70;48.20;;;;;;10291176;28;94263;-60
2023/07/02 13:01:23;;;;;;;;;;;22.70;48.40;;;;;;10292515;28;93657;-60
2023/07/02 13:06:25;;;;;;;;;;;22.70;48.00;;;;;;10292203;28;93559;-61
2023/07/02 13:11:27;;;;;;;;;;;22.70;48.20;;;;;;10291939;28;94580;-61
2023/07/02 13:16:29;;;;;;;;;;;22.70;47.80;;;;;;10291031;28;93521;-61
2023/07/02 13:21:30;;;;;;;;;;;22.70;47.80;;;;;;10291581;28;94157;-60
2023/07/02 13:26:32;;;;;;;;;;;22.70;47.60;;;;;;10290884;28;93094;-60
2023/07/02 13:31:34;;;;;;;;;;;22.70;47.70;;;;;;10291188;28;94533;-60
2023/07/02 13:36:35;;;;;;;;;;;22.70;47.00;;;;;;10287763;28;95817;-60
2023/07/02 13:41:37;;;;;;;;;;;22.70;46.60;;;;;;10272861;28;94589;-61
2023/07/02 13:46:39;;;;;;;;;;;22.70;47.00;;;;;;10290298;28;94517;-60
2023/07/02 13:51:41;;;;;;;;;;;22.70;47.60;;;;;;10288917;28;94107;-61
2023/07/02 13:56:42;;;;;;;;;;;22.70;47.50;;;;;;10290233;28;94852;-60
2023/07/02 14:01:44;;;;;;;;;;;22.70;47.40;;;;;;10289345;28;94538;-60
2023/07/02 14:06:46;;;;;;;;;;;22.70;47.40;;;;;;10289432;28;94445;-60
2023/07/02 14:11:49;;;;;;;;;;;22.60;47.30;;;;;;10291309;28;93764;-61
2023/07/02 14:16:50;;;;;;;;;;;22.70;47.40;;;;;;10272141;28;94578;-60
2023/07/02 14:21:52;;;;;;;;;;;22.70;47.20;;;;;;10288359;28;93592;-60
2023/07/02 14:26:54;;;;;;;;;;;22.60;46.50;;;;;;10286957;28;96619;-61
2023/07/02 14:31:56;;;;;;;;;;;22.60;46.60;;;;;;10287844;28;93608;-60
2023/07/02 14:36:57;;;;;;;;;;;22.60;47.20;;;;;;10288239;28;94478;-60
2023/07/02 14:41:59;;;;;;;;;;;22.60;47.10;;;;;;10288703;28;94775;-61
2023/07/02 14:47:01;;;;;;;;;;;22.60;46.80;;;;;;10288242;28;95037;-60
2023/07/02 14:52:03;;;;;;;;;;;22.60;47.50;;;;;;10287646;28;94097;-60
2023/07/02 14:57:05;;;;;;;;;;;22.60;46.90;;;;;;10288068;28;94462;-60
2023/07/02 15:02:06;;;;;;;;;;;22.60;47.40;;;;;;10288391;28;93848;-60
2023/07/02 15:07:08;;;;;;;;;;;22.70;47.00;;;;;;10286991;28;93519;-60
2023/07/02 15:12:10;;;;;;;;;;;22.60;47.00;;;;;;10288073;28;93575;-61
2023/07/02 15:17:11;;;;;;;;;;;22.70;47.20;;;;;;10285534;28;97090;-60
2023/07/02 15:22:13;;;;;;;;;;;22.70;46.70;;;;;;10286170;28;93564;-61
2023/07/02 15:27:15;;;;;;;;;;;22.70;47.40;;;;;;10286954;28;93510;-59
2023/07/02 15:32:16;;;;;;;;;;;22.70;47.40;;;;;;10287386;28;94847;-60
2023/07/02 15:37:18;;;;;;;;;;;22.60;47.30;;;;;;10285248;28;93623;-60
2023/07/02 15:42:20;;;;;;;;;;;22.70;46.90;;;;;;10252997;28;93757;-60
2023/07/02 15:47:22;;;;;;;;;;;22.60;47.00;;;;;;10268467;28;93715;-61
2023/07/02 15:52:24;;;;;;;;;;;22.70;47.10;;;;;;10287596;28;93636;-60
2023/07/02 15:57:26;;;;;;;;;;;22.70;46.90;;;;;;10270291;28;94839;-59
2023/07/02 16:02:28;;;;;;;;;;;22.70;46.80;;;;;;10286771;28;94041;-59
2023/07/02 16:07:30;;;;;;;;;;;22.70;47.10;;;;;;10283259;28;95920;-60
2023/07/02 16:12:31;;;;;;;;;;;22.70;47.20;;;;;;10285698;28;94132;-59
2023/07/02 16:17:33;;;;;;;;;;;22.70;47.20;;;;;;10286049;28;94777;-59
2023/07/02 16:22:35;;;;;;;;;;;22.70;47.20;;;;;;10284825;28;93497;-59
2023/07/02 16:27:36;;;;;;;;;;;22.70;47.10;;;;;;10288932;28;94754;-60
2023/07/02 16:32:38;;;;;;;;;;;22.70;47.00;;;;;;10274511;28;93747;-62
2023/07/02 16:37:40;;;;;;;;;;;22.70;46.80;;;;;;10291850;28;94642;-61
2023/07/02 16:42:41;;;;;;;;;;;22.70;47.10;;;;;;10293341;28;93149;-61
2023/07/02 16:47:43;;;;;;;;;;;22.70;47.10;;;;;;10291811;28;93660;-61
2023/07/02 16:52:45;;;;;;;;;;;22.70;47.10;;;;;;10292299;28;93332;-60
2023/07/02 16:57:47;;;;;;;;;;;22.70;47.00;;;;;;10289889;28;95893;-60
2023/07/02 17:02:49;;;;;;;;;;;22.70;46.90;;;;;;10291670;28;92975;-61
2023/07/02 17:07:51;;;;;;;;;;;22.70;47.10;;;;;;10273547;28;94606;-60
2023/07/02 17:12:52;;;;;;;;;;;22.70;47.10;;;;;;10291184;28;93614;-60
2023/07/02 17:17:54;;;;;;;;;;;22.70;47.20;;;;;;10290314;28;94473;-61
2023/07/02 17:22:56;;;;;;;;;;;22.70;47.10;;;;;;10290538;28;92786;-61
2023/07/02 17:27:58;;;;;;;;;;;22.70;47.30;;;;;;10272746;28;94588;-61
2023/07/02 17:33:01;;;;;;;;;;;22.60;47.30;;;;;;10290669;28;92281;-60
2023/07/02 17:38:02;;;;;;;;;;;22.60;47.20;;;;;;10289015;28;94581;-60
2023/07/02 17:43:04;;;;;;;;;;;22.60;47.30;;;;;;10290424;28;92806;-61
2023/07/02 17:48:06;;;;;;;;;;;22.60;47.30;;;;;;10287990;28;96820;-60
2023/07/02 17:53:08;;;;;;;;;;;22.70;47.60;;;;;;10290371;28;94732;-60
2023/07/02 17:58:10;;;;;;;;;;;22.70;47.60;;;;;;10289361;28;93582;-61
2023/07/02 18:03:11;;;;;;;;;;;22.70;47.60;;;;;;10271877;28;94200;-60
2023/07/02 18:08:13;;;;;;;;;;;22.80;47.60;;;;;;10290795;28;94399;-61
2023/07/02 18:13:16;;;;;;;;;;;22.80;47.50;;;;;;10271941;28;93425;-61
2023/07/02 18:18:19;;;;;;;;;;;22.80;47.50;;;;;;10289505;28;94595;-60
2023/07/02 18:23:21;;;;;;;;;;;22.80;47.50;;;;;;10255305;28;93021;-60
2023/07/02 18:28:23;;;;;;;;;;;22.80;47.50;;;;;;10289947;28;94651;-60
2023/07/02 18:33:29;;;;;;;;;;;22.80;47.50;;;;;;10288035;28;93496;-60
2023/07/02 18:38:33;;;;;;;;;;;22.80;47.60;;;;;;10286899;28;96334;-60
2023/07/02 18:43:36;;;;;;;;;;;22.70;47.60;;;;;;10271593;28;94919;-60
2023/07/02 18:48:38;;;;;;;;;;;22.70;47.60;;;;;;10288039;28;94818;-60
2023/07/02 18:53:40;;;;;;;;;;;22.60;47.60;;;;;;10287160;28;94598;-65
2023/07/02 18:58:41;;;;;;;;;;;22.70;47.80;;;;;;10287848;28;93249;-66
2023/07/02 19:03:45;;;;;;;;;;;22.70;47.70;;;;;;10288259;28;93655;-66
2023/07/02 19:08:48;;;;;;;;;;;22.70;47.80;;;;;;10287379;28;93431;-66
2023/07/02 19:13:49;;;;;;;;;;;22.60;47.80;;;;;;10289362;28;92766;-66
2023/07/02 19:18:51;;;;;;;;;;;22.60;47.80;;;;;;10287109;28;93663;-65
2023/07/02 19:23:58;;;;;;;;;;;22.60;47.90;;;;;;10286565;28;93548;-65
2023/07/02 19:29:00;;;;;;;;;;;22.60;47.80;;;;;;10267914;28;96084;-66
2023/07/02 19:34:04;;;;;;;;;;;22.60;47.90;;;;;;10287280;28;94573;-66
2023/07/02 19:39:06;;;;;;;;;;;22.60;47.80;;;;;;10286631;28;94774;-65
2023/07/02 19:44:07;;;;;;;;;;;22.60;47.90;;;;;;10287115;28;93716;-66
2023/07/02 19:49:09;;;;;;;;;;;22.60;47.80;;;;;;10285948;28;93684;-66
2023/07/02 19:54:11;;;;;;;;;;;22.60;47.90;;;;;;10286808;28;94615;-65
2023/07/02 19:59:13;;;;;;;;;;;22.50;47.90;;;;;;10284652;28;93553;-65
2023/07/02 20:04:19;;;;;;;;;;;22.50;48.00;;;;;;10291920;28;93638;-66
2023/07/02 20:09:21;;;;;;;;;;;22.50;48.00;;;;;;10259790;28;93710;-66
2023/07/02 20:14:23;;;;;;;;;;;22.50;48.10;;;;;;10293322;28;94486;-66
2023/07/02 20:19:25;;;;;;;;;;;22.50;48.20;;;;;;10272057;28;95877;-66
2023/07/02 20:24:26;;;;;;;;;;;22.50;48.10;;;;;;10293797;28;94991;-66
2023/07/02 20:29:28;;;;;;;;;;;22.50;48.20;;;;;;10292755;28;94652;-65
2023/07/02 20:34:33;;;;;;;;;;;22.50;48.20;;;;;;10292944;28;93870;-66
2023/07/02 20:39:35;;;;;;;;;;;22.50;48.30;;;;;;10291862;28;94460;-66
2023/07/02 20:44:37;;;;;;;;;;;22.40;48.20;;;;;;10292428;28;94443;-66
2023/07/02 20:49:39;;;;;;;;;;;22.40;48.40;;;;;;10274703;28;93552;-66
2023/07/02 20:54:40;;;;;;;;;;;22.40;48.40;;;;;;10292892;28;92849;-66
2023/07/02 20:59:42;;;;;;;;;;;22.40;48.50;;;;;;10291544;28;93705;-66
2023/07/02 21:04:44;;;;;;;;;;;22.40;48.60;;;;;;10292419;28;93680;-66
2023/07/02 21:09:46;;;;;;;;;;;22.40;48.60;;;;;;10271577;28;96819;-67
2023/07/02 21:14:52;;;;;;;;;;;22.40;48.70;;;;;;10272833;28;93694;-66
2023/07/02 21:19:54;;;;;;;;;;;22.40;48.80;;;;;;10273423;28;93480;-66
2023/07/02 21:24:55;;;;;;;;;;;22.40;48.90;;;;;;10291774;28;94546;-66
2023/07/02 21:29:57;;;;;;;;;;;22.40;48.90;;;;;;10290547;28;93617;-67
2023/07/02 21:35:01;;;;;;;;;;;22.40;49.00;;;;;;10273628;28;93080;-66
2023/07/02 21:40:02;;;;;;;;;;;22.40;49.10;;;;;;10290798;28;93669;-66
2023/07/02 21:45:06;;;;;;;;;;;22.40;49.20;;;;;;10290980;28;93038;-66
2023/07/02 21:50:08;;;;;;;;;;;22.40;49.30;;;;;;10290008;28;93916;-67
2023/07/02 21:55:09;;;;;;;;;;;22.40;49.30;;;;;;10288799;28;92943;-66
2023/07/02 22:00:12;;;;;;;;;;;22.40;49.30;;;;;;10286465;28;95996;-66
2023/07/02 22:05:15;;;;;;;;;;;22.40;49.40;;;;;;10288358;28;94472;-67
2023/07/02 22:10:17;;;;;;;;;;;22.40;49.50;;;;;;10288624;28;93120;-67
2023/07/02 22:15:20;;;;;;;;;;;22.40;49.50;;;;;;10288710;28;93531;-66
2023/07/02 22:20:21;;;;;;;;;;;22.40;49.60;;;;;;10289904;28;94319;-67
2023/07/02 22:25:23;;;;;;;;;;;22.40;49.70;;;;;;10288580;28;94529;-67
2023/07/02 22:30:26;;;;;;;;;;;22.40;49.70;;;;;;10271022;28;94630;-65
2023/07/02 22:35:27;;;;;;;;;;;22.40;49.80;;;;;;10289054;28;93537;-66
2023/07/02 22:40:29;;;;;;;;;;;22.40;49.80;;;;;;10288964;28;94678;-66
2023/07/02 22:45:31;;;;;;;;;;;22.40;49.90;;;;;;10271563;28;94415;-66
2023/07/02 22:50:33;;;;;;;;;;;22.40;49.90;;;;;;10285197;28;96096;-66
2023/07/02 22:55:35;;;;;;;;;;;22.40;50.00;;;;;;10288236;28;94533;-66
2023/07/02 23:00:37;;;;;;;;;;;22.40;50.00;;;;;;10287997;28;92913;-66
2023/07/02 23:05:40;;;;;;;;;;;22.40;51.10;;;;;;10287950;28;114176;-65
2023/07/02 23:10:43;;;;;;;;;;;22.40;50.20;;;;;;10270274;28;94338;-65
2023/07/02 23:15:44;;;;;;;;;;;22.40;50.20;;;;;;10287469;28;94561;-65
2023/07/02 23:20:46;;;;;;;;;;;22.40;50.30;;;;;;10287631;28;94327;-65
2023/07/02 23:25:48;;;;;;;;;;;22.40;50.30;;;;;;10270479;28;92916;-66
2023/07/02 23:30:51;;;;;;;;;;;22.40;50.40;;;;;;10269836;28;93535;-66
2023/07/02 23:35:58;;;;;;;;;;;22.40;50.40;;;;;;10270184;28;93325;-66
2023/07/02 23:41:00;;;;;;;;;;;22.40;50.60;;;;;;10284193;28;96999;-66
2023/07/02 23:46:02;;;;;;;;;;;22.40;50.80;;;;;;10286442;28;93689;-66
2023/07/02 23:51:04;;;;;;;;;;;22.40;50.80;;;;;;10286711;28;93629;-66
2023/07/02 23:56:05;;;;;;;;;;;22.40;50.90;;;;;;10287173;28;93698;-65
